createdAt,value
2019-01-12T00:02:22.510Z,96.80
2019-01-12T00:05:27.767Z,96.81
2019-01-12T00:08:33.560Z,96.98
2019-01-12T00:11:38.750Z,97.03
2019-01-12T00:14:44.133Z,96.96
2019-01-12T00:17:49.367Z,97.06
2019-01-12T00:20:54.499Z,97.16
2019-01-12T00:23:59.754Z,97.55
2019-01-12T00:27:05.242Z,97.72
2019-01-12T00:30:10.761Z,97.70
2019-01-12T00:33:16.039Z,97.66
2019-01-12T00:36:21.299Z,97.74
2019-01-12T00:39:26.518Z,97.75
2019-01-12T00:42:31.708Z,97.71
2019-01-12T00:45:36.909Z,97.60
2019-01-12T00:48:42.114Z,97.18
2019-01-12T00:51:47.319Z,97.32
2019-01-12T00:54:52.663Z,97.36
2019-01-12T00:57:57.802Z,97.55
2019-01-12T01:01:02.982Z,97.85
2019-01-12T01:04:08.192Z,97.85
2019-01-12T01:07:13.433Z,97.79
2019-01-12T01:10:20.472Z,97.74
2019-01-12T01:13:25.728Z,97.55
2019-01-12T01:16:30.948Z,97.68
2019-01-12T01:19:36.157Z,97.22
2019-01-12T01:22:41.358Z,97.25
2019-01-12T01:25:47.592Z,97.00
2019-01-12T01:28:52.883Z,96.77
2019-01-12T01:31:58.044Z,96.90
2019-01-12T01:35:03.217Z,96.67
2019-01-12T01:38:08.390Z,96.47
2019-01-12T01:41:13.627Z,96.64
2019-01-12T01:44:18.886Z,96.48
2019-01-12T01:47:23.866Z,96.80
2019-01-12T01:50:29.095Z,97.15
2019-01-12T01:53:34.279Z,97.44
2019-01-12T01:56:39.496Z,97.90
2019-01-12T01:59:44.727Z,97.83
2019-01-12T02:02:49.918Z,97.95
2019-01-12T02:05:55.074Z,98.16
2019-01-12T02:09:00.297Z,98.22
2019-01-12T02:12:05.750Z,98.16
2019-01-12T02:15:12.095Z,98.00
2019-01-12T02:18:17.415Z,97.85
2019-01-12T02:21:22.574Z,98.01
2019-01-12T02:24:27.785Z,98.40
2019-01-12T02:27:33.047Z,98.26
2019-01-12T02:30:38.263Z,98.47
2019-01-12T02:33:43.477Z,98.66
2019-01-12T02:36:48.676Z,98.66
2019-01-12T02:39:58.036Z,98.67
2019-01-12T02:43:04.467Z,98.69
2019-01-12T02:46:09.900Z,98.88
2019-01-12T02:49:15.143Z,99.07
2019-01-12T02:52:20.381Z,99.02
2019-01-12T02:55:25.693Z,99.02
2019-01-12T02:58:30.865Z,98.93
2019-01-12T03:01:36.151Z,98.91
2019-01-12T03:04:41.331Z,98.63
2019-01-12T03:07:46.497Z,98.73
2019-01-12T03:10:51.719Z,98.68
2019-01-12T03:13:57.100Z,98.25
2019-01-12T03:17:02.287Z,98.57
2019-01-12T03:20:09.556Z,98.91
2019-01-12T03:23:14.814Z,99.20
2019-01-12T03:26:19.988Z,99.33
2019-01-12T03:29:25.238Z,99.12
2019-01-12T03:32:30.446Z,98.39
2019-01-12T03:35:35.734Z,98.46
2019-01-12T03:38:40.953Z,98.55
2019-01-12T03:41:46.102Z,98.49
2019-01-12T03:44:51.351Z,98.37
2019-01-12T03:47:56.540Z,98.35
2019-01-12T03:51:01.850Z,98.36
2019-01-12T03:54:07.034Z,98.76
2019-01-12T03:57:12.137Z,99.25
2019-01-12T04:00:19.922Z,99.26
2019-01-12T04:03:25.081Z,98.77
2019-01-12T04:06:30.296Z,98.71
2019-01-12T04:09:36.587Z,98.88
2019-01-12T04:12:41.807Z,99.13
2019-01-12T04:15:47.038Z,99.03
2019-01-12T04:18:52.205Z,98.80
2019-01-12T04:21:57.325Z,99.00
2019-01-12T04:25:02.529Z,98.44
2019-01-12T04:28:07.737Z,98.86
2019-01-12T04:31:12.924Z,98.94
2019-01-12T04:34:18.075Z,98.96
2019-01-12T04:37:23.223Z,99.47
2019-01-12T04:40:28.607Z,99.36
2019-01-12T04:43:33.718Z,99.32
2019-01-12T04:46:38.949Z,99.07
2019-01-12T04:49:44.146Z,98.43
2019-01-12T04:52:49.256Z,98.03
2019-01-12T04:55:54.406Z,96.51
2019-01-12T04:58:59.616Z,95.87
2019-01-12T05:02:04.877Z,95.93
2019-01-12T05:05:10.641Z,96.46
2019-01-12T05:08:15.887Z,96.70
2019-01-12T05:11:21.076Z,96.64
2019-01-12T05:14:26.380Z,96.57
2019-01-12T05:17:31.539Z,96.33
2019-01-12T05:20:36.788Z,96.08
2019-01-12T05:23:41.904Z,96.29
2019-01-12T05:26:48.150Z,96.35
2019-01-12T05:29:53.306Z,96.42
2019-01-12T05:32:58.474Z,96.52
2019-01-12T05:36:03.650Z,96.27
2019-01-12T05:39:08.849Z,95.33
2019-01-12T05:42:14.057Z,95.26
2019-01-12T05:45:19.251Z,95.39
2019-01-12T05:48:24.437Z,95.48
2019-01-12T05:51:29.707Z,95.49
2019-01-12T05:54:34.879Z,95.33
2019-01-12T05:57:40.060Z,95.11
2019-01-12T06:00:45.267Z,95.22
2019-01-12T06:03:50.634Z,95.57
2019-01-12T06:06:55.816Z,95.05
2019-01-12T06:10:01.092Z,94.48
2019-01-12T06:13:06.173Z,93.88
2019-01-12T06:16:11.316Z,93.90
2019-01-12T06:19:16.518Z,93.70
2019-01-12T06:22:21.735Z,93.79
2019-01-12T06:25:26.986Z,94.16
2019-01-12T06:28:32.209Z,92.84
2019-01-12T06:31:37.422Z,92.86
2019-01-12T06:34:42.636Z,91.93
2019-01-12T06:37:47.759Z,92.56
2019-01-12T06:40:52.924Z,92.30
2019-01-12T06:43:58.048Z,93.29
2019-01-12T06:47:03.268Z,93.57
2019-01-12T06:50:09.682Z,92.97
2019-01-12T06:53:14.883Z,93.12
2019-01-12T06:56:20.098Z,92.70
2019-01-12T06:59:25.225Z,92.23
2019-01-12T07:02:30.325Z,92.23
2019-01-12T07:05:35.537Z,92.46
2019-01-12T07:08:40.755Z,92.40
2019-01-12T07:11:45.955Z,92.77
2019-01-12T07:14:51.154Z,92.43
2019-01-12T07:17:56.298Z,92.80
2019-01-12T07:21:15.908Z,92.83
2019-01-12T07:24:21.113Z,92.42
2019-01-12T07:27:26.334Z,93.18
2019-01-12T07:30:31.627Z,93.31
2019-01-12T07:33:36.805Z,92.47
2019-01-12T07:36:42.082Z,93.29
2019-01-12T07:39:47.206Z,93.52
2019-01-12T07:42:52.427Z,93.48
2019-01-12T07:45:57.584Z,93.24
2019-01-12T07:49:02.783Z,93.07
2019-01-12T07:52:09.620Z,92.40
2019-01-12T07:55:14.925Z,92.19
2019-01-12T07:58:20.081Z,91.96
2019-01-12T08:01:25.276Z,92.51
2019-01-12T08:04:30.654Z,92.55
2019-01-12T08:07:35.844Z,92.01
2019-01-12T08:10:41.107Z,92.53
2019-01-12T08:13:46.393Z,92.41
2019-01-12T08:16:51.610Z,91.38
2019-01-12T08:19:56.821Z,90.76
2019-01-12T08:23:01.948Z,90.38
2019-01-12T08:26:07.149Z,90.41
2019-01-12T08:29:12.327Z,90.71
2019-01-12T08:32:17.442Z,90.38
2019-01-12T08:35:22.710Z,89.49
2019-01-12T08:38:28.026Z,89.65
2019-01-12T08:41:33.277Z,90.34
2019-01-12T08:44:38.457Z,90.16
2019-01-12T08:47:43.666Z,88.36
2019-01-12T08:50:48.822Z,88.29
2019-01-12T08:53:53.954Z,89.31
2019-01-12T08:56:59.192Z,89.15
2019-01-12T09:00:06.139Z,89.74
2019-01-12T09:03:11.385Z,88.58
2019-01-12T09:06:16.558Z,88.54
2019-01-12T09:09:21.807Z,87.59
2019-01-12T09:12:26.990Z,88.66
2019-01-12T09:15:32.246Z,88.03
2019-01-12T09:18:37.427Z,88.12
2019-01-12T09:21:42.723Z,87.25
2019-01-12T09:24:47.857Z,86.02
2019-01-12T09:27:53.080Z,87.42
2019-01-12T09:30:58.249Z,87.14
2019-01-12T09:34:03.440Z,88.26
2019-01-12T09:37:09.642Z,86.52
2019-01-12T09:40:17.045Z,85.65
2019-01-12T09:43:22.207Z,85.69
2019-01-12T09:46:27.392Z,87.36
2019-01-12T09:49:32.616Z,84.61
2019-01-12T09:52:37.735Z,84.54
2019-01-12T09:55:43.024Z,84.13
2019-01-12T09:58:48.165Z,84.51
2019-01-12T10:01:53.438Z,84.05
2019-01-12T10:04:58.741Z,84.95
2019-01-12T10:08:04.482Z,84.41
2019-01-12T10:11:09.632Z,84.30
2019-01-12T10:14:14.715Z,83.18
2019-01-12T10:17:20.970Z,83.66
2019-01-12T10:20:26.202Z,83.11
2019-01-12T10:23:31.389Z,82.98
2019-01-12T10:26:36.795Z,82.92
2019-01-12T10:29:42.039Z,82.82
2019-01-12T10:32:47.184Z,83.20
2019-01-12T10:35:52.389Z,83.52
2019-01-12T10:38:57.583Z,84.08
2019-01-12T10:42:02.775Z,85.02
2019-01-12T10:45:09.823Z,84.32
2019-01-12T10:48:14.999Z,84.13
2019-01-12T10:51:20.235Z,85.15
2019-01-12T10:54:25.483Z,84.27
2019-01-12T10:57:30.650Z,84.33
2019-01-12T11:00:38.226Z,83.08
2019-01-12T11:03:43.531Z,82.50
2019-01-12T11:06:48.846Z,83.66
2019-01-12T11:09:54.081Z,82.44
2019-01-12T11:12:59.291Z,81.53
2019-01-12T11:16:04.591Z,80.29
2019-01-12T11:19:09.794Z,81.63
2019-01-12T11:22:15.063Z,82.29
2019-01-12T11:25:20.266Z,81.73
2019-01-12T11:28:25.450Z,82.50
2019-01-12T11:31:30.705Z,80.74
2019-01-12T11:34:35.924Z,80.69
2019-01-12T11:37:41.231Z,80.41
2019-01-12T11:40:46.449Z,81.82
2019-01-12T11:43:52.700Z,81.04
2019-01-12T11:46:57.817Z,82.56
2019-01-12T11:50:03.064Z,82.20
2019-01-12T11:53:08.226Z,83.15
2019-01-12T11:56:13.690Z,82.73
2019-01-12T11:59:18.960Z,81.09
2019-01-12T12:02:24.164Z,82.10
2019-01-12T12:05:29.539Z,82.98
2019-01-12T12:08:34.659Z,81.94
2019-01-12T12:11:39.932Z,80.70
2019-01-12T12:14:45.122Z,80.39
2019-01-12T12:17:50.424Z,79.89
2019-01-12T12:20:55.671Z,81.06
2019-01-12T12:24:00.933Z,80.47
2019-01-12T12:27:06.281Z,79.90
2019-01-12T12:30:15.566Z,79.62
2019-01-12T12:33:20.739Z,80.52
2019-01-12T12:36:26.003Z,79.91
2019-01-12T12:39:31.180Z,79.99
2019-01-12T12:42:36.395Z,79.77
2019-01-12T12:45:41.560Z,79.78
2019-01-12T12:48:46.820Z,80.50
2019-01-12T12:51:52.256Z,80.18
2019-01-12T12:54:57.501Z,80.63
2019-01-12T12:58:02.736Z,79.92
2019-01-12T13:01:07.995Z,79.50
2019-01-12T13:04:13.304Z,80.57
2019-01-12T13:07:18.526Z,80.42
2019-01-12T13:10:43.882Z,79.69
2019-01-12T13:13:49.031Z,80.39
2019-01-12T13:16:54.182Z,79.86
2019-01-12T13:19:59.492Z,79.88
2019-01-12T13:23:04.755Z,79.34
2019-01-12T13:26:12.717Z,79.21
2019-01-12T13:29:17.872Z,78.52
2019-01-12T13:32:24.704Z,80.82
2019-01-12T13:35:29.850Z,80.30
2019-01-12T13:38:35.046Z,82.01
2019-01-12T13:41:40.260Z,80.91
2019-01-12T13:44:45.458Z,82.17
2019-01-12T13:47:50.663Z,83.37
2019-01-12T13:50:55.975Z,83.53
2019-01-12T13:54:01.185Z,83.58
2019-01-12T13:57:06.389Z,84.54
2019-01-12T14:00:21.326Z,84.90
2019-01-12T14:03:26.457Z,85.39
2019-01-12T14:06:31.638Z,86.36
2019-01-12T14:09:36.856Z,85.39
2019-01-12T14:12:42.154Z,86.36
2019-01-12T14:15:47.327Z,86.26
2019-01-12T14:18:52.555Z,85.79
2019-01-12T14:21:58.836Z,85.66
2019-01-12T14:25:04.690Z,86.16
2019-01-12T14:28:09.947Z,85.85
2019-01-12T14:31:16.192Z,85.39
2019-01-12T14:34:21.391Z,85.67
2019-01-12T14:37:26.637Z,85.18
2019-01-12T14:40:31.955Z,86.04
2019-01-12T14:43:37.139Z,86.40
2019-01-12T14:46:42.291Z,87.77
2019-01-12T14:49:47.461Z,88.59
2019-01-12T14:53:04.257Z,88.48
2019-01-12T14:56:09.428Z,88.33
2019-01-12T14:59:14.852Z,89.27
2019-01-12T15:02:20.031Z,89.59
2019-01-12T15:05:29.986Z,90.14
2019-01-12T15:08:35.159Z,90.12
2019-01-12T15:11:40.442Z,90.54
2019-01-12T15:14:45.671Z,90.12
2019-01-12T15:17:50.937Z,89.45
2019-01-12T15:20:56.108Z,89.60
2019-01-12T15:24:01.271Z,89.97
2019-01-12T15:27:06.605Z,89.26
2019-01-12T15:30:15.169Z,89.75
2019-01-12T15:33:20.373Z,90.34
2019-01-12T15:36:25.595Z,90.91
2019-01-12T15:39:30.773Z,89.43
2019-01-12T15:42:36.007Z,90.27
2019-01-12T15:45:41.262Z,90.30
2019-01-12T15:48:46.400Z,90.18
2019-01-12T15:51:51.602Z,90.36
2019-01-12T15:54:56.722Z,89.52
2019-01-12T15:58:01.852Z,90.45
2019-01-12T16:01:09.723Z,90.06
2019-01-12T16:04:14.882Z,90.90
2019-01-12T16:07:20.022Z,90.37
2019-01-12T16:10:25.180Z,90.86
2019-01-12T16:13:31.148Z,91.58
2019-01-12T16:16:36.458Z,91.85
2019-01-12T16:19:41.697Z,91.31
2019-01-12T16:22:47.074Z,91.22
2019-01-12T16:25:52.225Z,91.17
2019-01-12T16:28:57.380Z,90.29
2019-01-12T16:32:02.555Z,90.96
2019-01-12T16:35:07.940Z,91.74
2019-01-12T16:38:13.056Z,91.89
2019-01-12T16:41:18.698Z,92.46
2019-01-12T16:44:24.852Z,91.77
2019-01-12T16:47:30.049Z,92.47
2019-01-12T16:50:35.284Z,92.69
2019-01-12T16:53:40.508Z,92.30
2019-01-12T16:56:45.647Z,91.91
2019-01-12T16:59:50.768Z,91.62
2019-01-12T17:02:56.048Z,91.80
2019-01-12T17:06:01.294Z,92.00
2019-01-12T17:09:08.887Z,92.22
2019-01-12T17:12:14.175Z,91.58
2019-01-12T17:15:23.154Z,90.98
2019-01-12T17:18:28.334Z,91.28
2019-01-12T17:21:33.472Z,91.13
2019-01-12T17:24:38.660Z,91.44
2019-01-12T17:27:43.781Z,91.40
2019-01-12T17:30:48.957Z,91.97
2019-01-12T17:33:54.135Z,92.35
2019-01-12T17:36:59.360Z,91.96
2019-01-12T17:40:05.033Z,91.82
2019-01-12T17:43:10.180Z,92.31
2019-01-12T17:46:15.294Z,92.31
2019-01-12T17:49:20.458Z,91.39
2019-01-12T17:52:25.625Z,90.98
2019-01-12T17:55:30.788Z,90.84
2019-01-12T17:58:35.951Z,90.74
2019-01-12T18:01:41.242Z,90.81
2019-01-12T18:04:46.495Z,90.76
2019-01-12T18:07:51.699Z,91.20
2019-01-12T18:10:56.867Z,90.85
2019-01-12T18:14:02.020Z,91.20
2019-01-12T18:17:07.190Z,90.49
2019-01-12T18:20:13.735Z,90.96
2019-01-12T18:23:19.034Z,91.73
2019-01-12T18:26:24.315Z,91.32
2019-01-12T18:29:29.529Z,91.84
2019-01-12T18:32:34.763Z,91.52
2019-01-12T18:35:41.025Z,91.92
2019-01-12T18:38:46.204Z,91.71
2019-01-12T18:41:51.441Z,91.39
2019-01-12T18:44:56.590Z,91.30
2019-01-12T18:48:01.836Z,90.92
2019-01-12T18:51:07.054Z,91.13
2019-01-12T18:54:12.257Z,90.76
2019-01-12T18:57:17.620Z,90.50
2019-01-12T19:00:24.814Z,90.13
2019-01-12T19:03:30.015Z,90.03
2019-01-12T19:06:35.248Z,90.11
2019-01-12T19:09:40.389Z,90.75
2019-01-12T19:12:45.646Z,90.83
2019-01-12T19:15:50.828Z,90.99
2019-01-12T19:18:56.312Z,90.63
2019-01-12T19:22:01.506Z,91.04
2019-01-12T19:25:07.866Z,90.64
2019-01-12T19:28:13.043Z,89.77
2019-01-12T19:31:18.233Z,89.28
2019-01-12T19:34:23.437Z,89.64
2019-01-12T19:37:28.663Z,89.33
2019-01-12T19:40:33.859Z,90.38
2019-01-12T19:43:39.031Z,90.37
2019-01-12T19:46:44.193Z,90.34
2019-01-12T19:49:49.416Z,90.19
2019-01-12T19:52:54.610Z,90.53
2019-01-12T19:55:59.788Z,90.94
2019-01-12T19:59:04.919Z,91.13
2019-01-12T20:02:12.972Z,90.71
2019-01-12T20:05:18.322Z,89.33
2019-01-12T20:08:28.618Z,90.13
2019-01-12T20:11:33.786Z,90.69
2019-01-12T20:14:39.063Z,90.92
2019-01-12T20:17:44.323Z,90.69
2019-01-12T20:20:49.568Z,90.03
2019-01-12T20:23:54.828Z,90.05
2019-01-12T20:26:59.999Z,90.75
2019-01-12T20:30:09.789Z,89.95
2019-01-12T20:33:45.896Z,90.11
2019-01-12T20:37:30.720Z,90.36
2019-01-12T20:41:09.592Z,91.31
2019-01-12T20:44:47.755Z,91.84
2019-01-12T20:48:17.738Z,91.44
2019-01-12T20:52:02.749Z,90.50
2019-01-12T20:55:36.876Z,90.57
2019-01-12T20:59:07.854Z,90.93
2019-01-12T21:03:12.298Z,91.06
2019-01-12T21:07:01.227Z,91.29
2019-01-12T21:10:42.068Z,90.56
2019-01-12T21:14:30.559Z,91.14
2019-01-12T21:17:35.832Z,91.81
2019-01-12T21:20:40.983Z,90.79
2019-01-12T21:23:46.337Z,91.38
2019-01-12T21:26:51.531Z,91.66
2019-01-12T21:29:56.924Z,91.90
2019-01-12T21:33:09.288Z,90.00
2019-01-12T21:36:16.159Z,90.73
2019-01-12T21:39:21.327Z,91.90
2019-01-12T21:42:26.459Z,91.81
2019-01-12T21:45:31.664Z,90.95
2019-01-12T21:48:36.880Z,92.21
2019-01-12T21:51:42.178Z,90.74
2019-01-12T21:54:47.619Z,90.46
2019-01-12T21:57:54.242Z,89.82
2019-01-12T22:00:59.541Z,90.90
2019-01-12T22:04:04.783Z,91.27
2019-01-12T22:07:10.026Z,91.31
2019-01-12T22:10:19.272Z,89.49
2019-01-12T22:13:22.912Z,90.01
2019-01-12T22:16:28.205Z,88.83
2019-01-12T22:19:33.395Z,89.00
2019-01-12T22:22:38.620Z,89.71
2019-01-12T22:25:43.862Z,89.55
2019-01-12T22:28:49.061Z,90.37
2019-01-12T22:31:54.425Z,91.00
2019-01-12T22:34:59.609Z,90.88
2019-01-12T22:38:04.784Z,90.79
2019-01-12T22:41:09.962Z,90.77
2019-01-12T22:44:15.237Z,89.89
2019-01-12T22:47:20.338Z,91.00
2019-01-12T22:50:25.626Z,89.85
2019-01-12T22:53:31.891Z,91.35
2019-01-12T22:56:37.118Z,91.33
2019-01-12T22:59:43.264Z,90.66
2019-01-12T23:02:48.698Z,90.36
2019-01-12T23:05:53.919Z,90.28
2019-01-12T23:08:59.183Z,91.05
2019-01-12T23:12:04.604Z,91.16
2019-01-12T23:15:09.889Z,91.25
2019-01-12T23:18:15.165Z,90.31
2019-01-12T23:21:20.480Z,90.63
2019-01-12T23:24:25.772Z,91.07
2019-01-12T23:27:32.066Z,90.73
2019-01-12T23:30:37.929Z,90.60
2019-01-12T23:33:44.305Z,90.33
2019-01-12T23:36:49.533Z,91.29
2019-01-12T23:39:54.773Z,90.55
2019-01-12T23:43:00.948Z,90.73
2019-01-12T23:46:06.260Z,90.84
2019-01-12T23:49:11.391Z,90.68
2019-01-12T23:52:16.666Z,90.18
2019-01-12T23:55:21.945Z,89.68
2019-01-12T23:58:27.190Z,89.81
